Airport Name : Sharm El Sheikh Intl

Other Name : Sharm El Sheikh

ICAO : HESH

IATA : SSH

FAA :

Latitude : 27.977286

Longitude : 34.39495

Country : Egypt

Local Date and Time : 24 Nov 2020 10:51

 

TAF (Terminal Aerodrome Forecast)

TAF HESH 240500Z 2406/2512 36010KT CAVOK

 

METAR (METeorological Aerodrome Report)

HESH 240800Z 36008KT CAVOK 26/09 Q1015 NOSIG

HESH 240700Z 36010KT CAVOK 25/10 Q1015 NOSIG

HESH 240600Z 35008KT CAVOK 24/11 Q1015 NOSIG

HESH 240500Z 35005KT CAVOK 21/09 Q1015 NOSIG

To Charter a Jet Click here.